Time;durP1;ratioP1;P1;durP2;ratioP2;P2;SDS_P1;SDS_P2;PMS_P1;PMS_P2;Temp;Humidity;BMP_temperature;BMP_pressure;BME280_temperature;BME280_humidity;BME280_pressure;Samples;Min_cycle;Max_cycle;Signal;HPM_P1;HPM_P2
2021/07/27 00:02:19;;;;;;;5.97;5.30;;;16.50;99.90;;;;;;5015060;28;20683;-85
2021/07/27 00:04:46;;;;;;;5.77;5.20;;;16.50;99.90;;;;;;5023789;28;21102;-84
2021/07/27 00:07:13;;;;;;;6.10;5.50;;;16.40;99.90;;;;;;5020886;28;20619;-84
2021/07/27 00:09:40;;;;;;;6.10;5.50;;;16.50;99.90;;;;;;5005306;28;20640;-84
2021/07/27 00:12:07;;;;;;;5.60;4.70;;;16.40;99.90;;;;;;5018663;28;20630;-84
2021/07/27 00:14:34;;;;;;;6.00;5.40;;;16.30;99.90;;;;;;5016560;28;21033;-84
2021/07/27 00:17:03;;;;;;;6.00;5.40;;;16.30;99.90;;;;;;5030735;28;20626;-84
2021/07/27 00:19:31;;;;;;;7.03;5.47;;;16.30;99.90;;;;;;5028708;28;20647;-85
2021/07/27 00:21:58;;;;;;;5.47;4.97;;;16.20;99.90;;;;;;5028024;28;20645;-84
2021/07/27 00:24:26;;;;;;;7.30;5.50;;;16.20;99.90;;;;;;5013115;28;20643;-84
2021/07/27 00:26:54;;;;;;;6.33;5.73;;;16.10;99.90;;;;;;5039201;28;20610;-84
2021/07/27 00:29:22;;;;;;;9.40;5.77;;;16.10;99.90;;;;;;5030114;28;21070;-84
2021/07/27 00:31:49;;;;;;;8.17;5.53;;;16.10;99.90;;;;;;5023996;28;20616;-84
2021/07/27 00:34:17;;;;;;;5.87;5.27;;;16.20;99.90;;;;;;5024210;28;20635;-84
2021/07/27 00:36:44;;;;;;;6.40;5.80;;;16.20;99.90;;;;;;5010434;28;20680;-84
2021/07/27 00:39:11;;;;;;;6.97;5.40;;;16.20;99.90;;;;;;5021061;28;20651;-84
2021/07/27 00:41:38;;;;;;;5.77;5.13;;;16.20;99.90;;;;;;5021049;28;20628;-84
2021/07/27 00:44:05;;;;;;;8.33;5.90;;;16.20;99.90;;;;;;5022969;28;20678;-84
2021/07/27 00:46:33;;;;;;;6.43;5.83;;;16.20;99.90;;;;;;5017149;28;21188;-85
2021/07/27 00:49:01;;;;;;;6.30;5.73;;;16.30;99.90;;;;;;5026787;28;21011;-85
2021/07/27 00:51:29;;;;;;;6.07;5.37;;;16.20;99.90;;;;;;5030161;28;20626;-85
2021/07/27 00:53:57;;;;;;;6.00;5.43;;;16.00;99.90;;;;;;5022734;28;21617;-85
2021/07/27 00:56:26;;;;;;;6.67;5.90;;;16.00;99.90;;;;;;5029945;28;20619;-85
2021/07/27 00:58:53;;;;;;;7.03;5.83;;;16.00;99.90;;;;;;5023453;28;20724;-85
2021/07/27 01:01:21;;;;;;;8.60;6.13;;;15.80;99.90;;;;;;5020270;28;20628;-84
2021/07/27 01:03:50;;;;;;;6.10;5.60;;;15.80;99.90;;;;;;5010620;28;20713;-84
2021/07/27 01:06:18;;;;;;;5.57;5.10;;;15.80;99.90;;;;;;5011685;28;20624;-84
2021/07/27 01:08:49;;;;;;;5.70;5.20;;;15.70;99.90;;;;;;5023280;28;21234;-84
2021/07/27 01:11:24;;;;;;;5.30;4.50;;;15.60;99.90;;;;;;5020932;28;20682;-85
2021/07/27 01:13:53;;;;;;;7.33;5.60;;;15.50;99.90;;;;;;5019904;28;21436;-85
2021/07/27 01:16:26;;;;;;;6.70;5.97;;;15.50;99.90;;;;;;5029480;28;20623;-85
2021/07/27 01:19:02;;;;;;;6.13;5.47;;;15.50;99.90;;;;;;5028510;28;20634;-85
2021/07/27 01:38:51;;;;;;;6.00;5.40;;;15.50;99.90;;;;;;5025006;28;20957;-84
2021/07/27 01:44:08;;;;;;;5.53;5.00;;;15.60;99.90;;;;;;5029152;28;20620;-84
2021/07/27 01:46:40;;;;;;;6.53;5.87;;;15.70;99.90;;;;;;5032874;28;20663;-84
2021/07/27 01:49:11;;;;;;;6.90;6.27;;;15.70;99.90;;;;;;5033801;28;20606;-84
2021/07/27 01:51:46;;;;;;;6.50;5.93;;;15.90;99.90;;;;;;5052342;28;20667;-84
2021/07/27 01:54:28;;;;;;;7.30;6.60;;;15.90;99.90;;;;;;5034702;28;21500;-84
2021/07/27 01:57:16;;;;;;;7.00;6.07;;;15.90;99.90;;;;;;5017210;28;21317;-84
2021/07/27 01:59:46;;;;;;;11.50;6.43;;;15.90;99.90;;;;;;5018743;28;21009;-84
2021/07/27 02:02:14;;;;;;;8.10;7.10;;;15.90;99.90;;;;;;5025804;28;20635;-84
2021/07/27 02:04:42;;;;;;;7.07;6.47;;;15.90;99.90;;;;;;5013439;28;20628;-84
2021/07/27 02:07:10;;;;;;;7.80;7.00;;;15.90;99.90;;;;;;5014595;28;21606;-84
2021/07/27 02:09:40;;;;;;;7.90;7.10;;;15.90;99.90;;;;;;5010172;28;20931;-84
2021/07/27 02:12:16;;;;;;;8.97;7.03;;;15.80;99.90;;;;;;5028059;28;20607;-84
2021/07/27 02:17:30;;;;;;;7.60;6.00;;;15.60;99.90;;;;;;5028415;28;20638;-84
2021/07/27 02:19:59;;;;;;;8.90;7.20;;;15.50;99.90;;;;;;5031669;28;20647;-84
2021/07/27 02:22:28;;;;;;;7.27;5.83;;;15.50;99.90;;;;;;5030907;28;20623;-85
2021/07/27 02:24:56;;;;;;;6.07;5.40;;;15.50;99.90;;;;;;5020330;28;20714;-84
2021/07/27 02:27:25;;;;;;;6.47;5.87;;;15.40;99.90;;;;;;5028372;28;21191;-85
2021/07/27 02:29:54;;;;;;;7.60;6.20;;;15.50;99.90;;;;;;5013664;28;20620;-85
2021/07/27 02:32:24;;;;;;;7.83;7.03;;;15.60;99.90;;;;;;5013577;28;20620;-85
2021/07/27 02:34:52;;;;;;;7.17;6.57;;;15.60;99.90;;;;;;5017896;28;20673;-85
2021/07/27 02:37:20;;;;;;;8.40;7.53;;;15.60;99.90;;;;;;5031778;28;20969;-85
2021/07/27 02:39:48;;;;;;;7.93;7.13;;;15.60;99.90;;;;;;5031796;28;20777;-85
2021/07/27 02:42:20;;;;;;;7.90;7.20;;;15.50;99.90;;;;;;5022144;28;20718;-85
2021/07/27 02:44:50;;;;;;;7.70;6.60;;;15.40;99.90;;;;;;5022731;28;20623;-84
2021/07/27 02:47:20;;;;;;;9.83;6.93;;;15.40;99.90;;;;;;5029808;28;20623;-85
2021/07/27 02:49:48;;;;;;;7.50;6.77;;;15.40;99.90;;;;;;5013205;28;20665;-85
2021/07/27 02:52:16;;;;;;;9.00;6.70;;;15.40;99.90;;;;;;5020170;28;20629;-85
2021/07/27 02:54:43;;;;;;;10.30;7.03;;;15.40;99.90;;;;;;5016652;28;21298;-84
2021/07/27 02:57:10;;;;;;;6.67;6.07;;;15.40;99.90;;;;;;5028659;28;21108;-84
2021/07/27 02:59:37;;;;;;;12.00;6.97;;;15.50;99.90;;;;;;5010383;28;20656;-84
2021/07/27 03:02:04;;;;;;;6.60;6.07;;;15.50;99.90;;;;;;5024126;28;20673;-84
2021/07/27 03:04:32;;;;;;;7.97;6.60;;;15.60;99.90;;;;;;5012001;28;20679;-84
2021/07/27 03:06:59;;;;;;;8.27;6.77;;;15.60;99.90;;;;;;5012173;28;20962;-84
2021/07/27 03:09:28;;;;;;;8.77;7.60;;;15.60;99.90;;;;;;5031691;28;20616;-84
2021/07/27 03:11:55;;;;;;;7.87;7.17;;;15.70;99.90;;;;;;5049700;28;20626;-84
2021/07/27 03:14:22;;;;;;;10.13;7.33;;;15.70;99.90;;;;;;5005626;28;20643;-84
2021/07/27 03:16:49;;;;;;;8.07;7.27;;;15.70;99.90;;;;;;5020243;28;20607;-84
2021/07/27 03:19:18;;;;;;;8.27;7.57;;;15.70;99.90;;;;;;5031237;28;20705;-84
2021/07/27 03:21:46;;;;;;;8.20;6.63;;;15.70;99.90;;;;;;5024216;28;20617;-84
2021/07/27 03:24:13;;;;;;;7.00;6.20;;;15.70;99.90;;;;;;5029142;28;21183;-84
2021/07/27 03:26:40;;;;;;;6.80;6.10;;;15.60;99.90;;;;;;5037564;28;20628;-84
2021/07/27 03:29:08;;;;;;;8.10;6.87;;;15.60;99.90;;;;;;5022366;28;20631;-84
2021/07/27 03:31:35;;;;;;;10.37;7.43;;;15.50;99.90;;;;;;5030612;28;20611;-84
2021/07/27 03:34:02;;;;;;;10.80;8.00;;;15.60;99.90;;;;;;5015522;28;20668;-84
2021/07/27 03:36:29;;;;;;;7.67;6.70;;;15.50;99.90;;;;;;5029207;28;20612;-85
2021/07/27 03:38:57;;;;;;;7.20;6.60;;;15.50;99.90;;;;;;5031322;28;21636;-84
2021/07/27 03:41:25;;;;;;;8.80;7.30;;;15.50;99.90;;;;;;5027861;28;20655;-85
2021/07/27 03:43:53;;;;;;;7.90;7.10;;;15.50;99.90;;;;;;5034203;28;20614;-84
2021/07/27 03:46:20;;;;;;;8.27;7.47;;;15.50;99.90;;;;;;5025917;28;20613;-84
2021/07/27 03:48:46;;;;;;;8.03;6.03;;;15.40;99.90;;;;;;5019205;28;20953;-84
2021/07/27 03:51:14;;;;;;;7.20;6.60;;;15.30;99.90;;;;;;5038549;28;20630;-84
2021/07/27 03:53:41;;;;;;;7.90;6.83;;;15.20;99.90;;;;;;5015408;28;20612;-84
2021/07/27 03:56:12;;;;;;;6.70;5.67;;;15.20;99.90;;;;;;5017925;28;20634;-85
2021/07/27 03:58:42;;;;;;;7.63;6.70;;;15.20;99.90;;;;;;5023081;28;21238;-84
2021/07/27 04:01:09;;;;;;;10.60;7.43;;;15.20;99.90;;;;;;5019121;28;20666;-84
2021/07/27 04:03:36;;;;;;;9.70;7.73;;;15.20;99.90;;;;;;5009704;28;20702;-84
2021/07/27 04:06:03;;;;;;;9.27;6.60;;;15.30;99.90;;;;;;5020303;28;20634;-85
2021/07/27 04:08:30;;;;;;;11.20;6.50;;;15.20;99.90;;;;;;5030863;28;20608;-84
2021/07/27 04:11:01;;;;;;;7.80;7.00;;;15.20;99.90;;;;;;5012424;28;21106;-85
2021/07/27 04:13:32;;;;;;;7.37;6.67;;;15.10;99.90;;;;;;5011642;28;20719;-85
2021/07/27 04:16:01;;;;;;;10.20;9.30;;;15.10;99.90;;;;;;5019087;28;21175;-84
2021/07/27 04:18:38;;;;;;;8.50;7.70;;;15.10;99.90;;;;;;5030915;28;20635;-84
2021/07/27 04:21:05;;;;;;;6.70;6.20;;;15.10;99.90;;;;;;5020943;28;20657;-84
2021/07/27 04:23:39;;;;;;;7.50;6.63;;;15.10;99.90;;;;;;5011173;28;20628;-85
2021/07/27 04:26:11;;;;;;;8.87;8.07;;;15.20;99.90;;;;;;5012618;28;20704;-85
2021/07/27 04:28:41;;;;;;;7.43;6.73;;;15.20;99.90;;;;;;5026128;28;21213;-85
2021/07/27 04:31:11;;;;;;;10.90;8.00;;;15.30;99.90;;;;;;5030168;28;20608;-85
2021/07/27 04:33:41;;;;;;;7.90;7.20;;;15.30;99.90;;;;;;5013234;28;20624;-84
2021/07/27 04:36:08;;;;;;;7.53;6.83;;;15.30;99.90;;;;;;5025346;28;20955;-84
2021/07/27 04:38:36;;;;;;;9.33;8.10;;;15.30;99.90;;;;;;5020584;28;20615;-84
2021/07/27 04:41:07;;;;;;;8.67;6.20;;;15.40;99.90;;;;;;5029002;28;20702;-84
2021/07/27 04:43:34;;;;;;;8.30;7.53;;;15.50;99.90;;;;;;5028732;28;20721;-85
2021/07/27 04:46:09;;;;;;;8.13;7.33;;;15.50;99.90;;;;;;5025600;28;21355;-84
2021/07/27 04:48:39;;;;;;;10.37;7.47;;;15.50;99.90;;;;;;5020540;28;21192;-85
2021/07/27 04:51:11;;;;;;;8.00;7.17;;;15.70;99.90;;;;;;5049523;28;20599;-85
2021/07/27 04:53:42;;;;;;;9.23;7.17;;;15.70;99.90;;;;;;5032614;28;20654;-85
2021/07/27 04:56:14;;;;;;;10.80;7.80;;;15.80;99.90;;;;;;5025651;28;20624;-84
2021/07/27 04:58:43;;;;;;;8.67;7.40;;;15.90;99.90;;;;;;5011709;28;20624;-84
2021/07/27 05:01:11;;;;;;;10.13;9.03;;;15.90;99.90;;;;;;5010837;28;20636;-84
2021/07/27 05:03:38;;;;;;;13.73;9.30;;;16.00;99.90;;;;;;5024414;28;20611;-84
2021/07/27 05:06:07;;;;;;;9.10;7.93;;;16.00;99.90;;;;;;5034470;28;20610;-84
2021/07/27 05:08:34;;;;;;;7.30;6.70;;;16.00;99.90;;;;;;5020948;28;20650;-85
2021/07/27 05:11:02;;;;;;;8.40;7.50;;;16.00;99.90;;;;;;5014357;28;20718;-84
2021/07/27 05:13:29;;;;;;;9.80;7.30;;;16.00;99.90;;;;;;5021308;28;20727;-85
2021/07/27 05:15:57;;;;;;;8.10;7.33;;;16.00;99.90;;;;;;5016315;28;20624;-85
2021/07/27 05:18:25;;;;;;;9.33;7.20;;;16.10;99.90;;;;;;5033620;28;21320;-85
2021/07/27 05:20:52;;;;;;;11.20;8.30;;;16.20;99.90;;;;;;5029572;28;20651;-84
2021/07/27 05:23:18;;;;;;;10.90;7.43;;;16.30;99.90;;;;;;5013941;28;20671;-84
2021/07/27 05:25:45;;;;;;;10.60;7.60;;;16.40;99.90;;;;;;5024645;28;20706;-85
2021/07/27 05:28:13;;;;;;;13.57;8.23;;;16.60;99.90;;;;;;5040382;28;21044;-85
2021/07/27 05:30:39;;;;;;;10.27;7.83;;;16.60;99.90;;;;;;5032725;28;20886;-85
2021/07/27 05:33:06;;;;;;;7.80;7.10;;;16.60;99.90;;;;;;5031998;28;20658;-84
2021/07/27 05:35:34;;;;;;;8.93;8.03;;;16.60;99.90;;;;;;5024645;28;20697;-85
2021/07/27 05:38:03;;;;;;;8.63;7.63;;;16.70;99.90;;;;;;5032411;28;20608;-85
2021/07/27 05:40:31;;;;;;;8.37;7.67;;;16.80;99.90;;;;;;5012445;28;20682;-84
2021/07/27 05:42:58;;;;;;;7.77;7.17;;;16.80;99.90;;;;;;5013679;28;20637;-85
2021/07/27 05:45:26;;;;;;;9.03;7.83;;;16.80;99.90;;;;;;5010515;28;20621;-85
2021/07/27 05:47:53;;;;;;;7.70;7.00;;;16.80;99.90;;;;;;5015140;28;20622;-85
2021/07/27 05:50:21;;;;;;;8.30;7.40;;;16.80;99.90;;;;;;5044743;28;21174;-85
2021/07/27 05:52:55;;;;;;;8.17;7.23;;;16.90;99.90;;;;;;5036370;28;20631;-85
2021/07/27 05:55:22;;;;;;;10.20;7.20;;;17.00;99.90;;;;;;5033064;28;20977;-85
2021/07/27 05:57:50;;;;;;;8.70;6.87;;;17.00;99.90;;;;;;5023846;28;20624;-85
2021/07/27 06:00:17;;;;;;;7.90;7.00;;;17.20;99.90;;;;;;5032122;28;20719;-86
2021/07/27 06:02:44;;;;;;;9.10;6.93;;;17.20;99.90;;;;;;5032139;28;20624;-85
2021/07/27 06:05:12;;;;;;;7.10;6.37;;;17.30;99.90;;;;;;5033798;28;20617;-85
2021/07/27 06:07:39;;;;;;;7.77;7.07;;;17.50;99.90;;;;;;5033271;28;20604;-85
2021/07/27 06:10:08;;;;;;;8.17;7.07;;;17.50;99.90;;;;;;5033086;28;21020;-85
2021/07/27 06:12:37;;;;;;;7.77;7.17;;;17.60;99.90;;;;;;5034856;28;20606;-86
2021/07/27 06:15:06;;;;;;;7.60;6.87;;;17.80;99.90;;;;;;5035389;28;20650;-85
2021/07/27 06:17:33;;;;;;;9.50;8.50;;;17.90;99.90;;;;;;5023657;28;20621;-86
2021/07/27 06:20:00;;;;;;;8.03;7.23;;;18.00;99.90;;;;;;5035147;28;20712;-85
2021/07/27 06:22:28;;;;;;;6.90;6.30;;;18.00;99.90;;;;;;5034750;28;21012;-86
2021/07/27 06:24:55;;;;;;;8.00;7.10;;;18.00;99.90;;;;;;5036026;28;20607;-86
2021/07/27 06:27:24;;;;;;;7.90;7.20;;;18.10;99.90;;;;;;5036081;28;20657;-86
2021/07/27 06:29:51;;;;;;;9.00;7.27;;;18.20;99.90;;;;;;5016742;28;20627;-86
2021/07/27 06:32:18;;;;;;;7.13;6.40;;;18.30;99.90;;;;;;5017633;28;20608;-85
2021/07/27 06:34:45;;;;;;;9.90;8.00;;;18.40;99.90;;;;;;5036028;28;20626;-85
2021/07/27 06:37:12;;;;;;;7.40;6.70;;;18.40;99.90;;;;;;5035943;28;20615;-86
2021/07/27 06:39:39;;;;;;;7.60;6.53;;;18.40;99.90;;;;;;5044809;28;20612;-86
2021/07/27 06:42:09;;;;;;;7.23;6.53;;;18.40;99.90;;;;;;5025277;28;21268;-85
2021/07/27 06:44:37;;;;;;;7.43;6.73;;;18.40;99.90;;;;;;5044070;28;20663;-85
2021/07/27 06:47:04;;;;;;;7.00;6.40;;;18.30;99.90;;;;;;5013741;28;20677;-85
2021/07/27 06:49:31;;;;;;;7.43;6.60;;;18.40;99.90;;;;;;5029790;28;20610;-85
2021/07/27 06:51:58;;;;;;;7.60;6.90;;;18.30;99.90;;;;;;5044969;28;20630;-85
2021/07/27 06:54:25;;;;;;;5.90;5.40;;;18.30;99.90;;;;;;5032309;28;20602;-85
2021/07/27 06:56:55;;;;;;;8.63;6.57;;;18.40;99.90;;;;;;5032601;28;20619;-85
2021/07/27 06:59:23;;;;;;;8.40;5.93;;;18.40;99.90;;;;;;5032463;28;20674;-85
2021/07/27 07:01:51;;;;;;;8.27;7.57;;;18.30;99.90;;;;;;5031987;28;20639;-86
2021/07/27 07:04:18;;;;;;;7.23;6.63;;;18.40;99.90;;;;;;5041614;28;20626;-86
2021/07/27 07:06:45;;;;;;;8.43;5.80;;;18.60;99.90;;;;;;5052457;28;20629;-86
2021/07/27 07:09:12;;;;;;;7.47;6.73;;;18.60;99.90;;;;;;5051939;28;20609;-87
2021/07/27 07:11:39;;;;;;;6.50;5.90;;;18.70;99.90;;;;;;5051391;28;20948;-86
2021/07/27 07:14:06;;;;;;;7.50;6.70;;;18.80;99.90;;;;;;5052414;28;20963;-86
2021/07/27 07:16:33;;;;;;;7.33;6.63;;;18.80;99.90;;;;;;5052142;28;20632;-85
2021/07/27 07:19:01;;;;;;;6.13;5.63;;;18.90;99.90;;;;;;5035599;28;20630;-86
2021/07/27 07:21:28;;;;;;;6.97;6.40;;;19.00;99.90;;;;;;5031317;28;20659;-86
2021/07/27 07:23:55;;;;;;;9.37;5.93;;;19.30;99.90;;;;;;5031453;28;21023;-86
2021/07/27 07:26:22;;;;;;;7.20;6.53;;;19.50;99.90;;;;;;5041114;28;20617;-86
2021/07/27 07:28:49;;;;;;;6.30;5.60;;;19.70;99.90;;;;;;5045475;28;21010;-85
2021/07/27 07:31:16;;;;;;;5.80;5.37;;;19.80;99.90;;;;;;5031209;28;21007;-86
2021/07/27 07:33:46;;;;;;;7.33;6.27;;;19.90;99.90;;;;;;5031983;28;21117;-85
2021/07/27 07:36:15;;;;;;;6.77;6.07;;;19.90;99.90;;;;;;5029777;28;20983;-85
2021/07/27 07:38:43;;;;;;;6.67;5.97;;;19.80;99.90;;;;;;5031290;28;20603;-86
2021/07/27 07:41:11;;;;;;;6.80;6.20;;;19.70;99.90;;;;;;5035334;28;20664;-85
2021/07/27 07:43:38;;;;;;;7.00;6.40;;;19.80;99.90;;;;;;5039306;28;20618;-86
2021/07/27 07:46:05;;;;;;;7.20;6.50;;;20.00;99.90;;;;;;5051324;28;20687;-86
2021/07/27 07:48:32;;;;;;;7.80;5.47;;;20.10;99.90;;;;;;5049396;28;20606;-86
2021/07/27 07:50:59;;;;;;;6.57;5.90;;;20.10;99.90;;;;;;5031559;28;20618;-86
2021/07/27 07:53:27;;;;;;;6.83;6.23;;;19.90;99.90;;;;;;5030838;28;20646;-86
2021/07/27 07:55:55;;;;;;;6.60;5.50;;;19.90;99.90;;;;;;5031054;28;20623;-85
2021/07/27 07:58:21;;;;;;;6.57;5.97;;;20.30;99.90;;;;;;5030660;28;20622;-86
2021/07/27 08:00:48;;;;;;;6.60;6.00;;;20.50;99.90;;;;;;5030954;28;20678;-85
2021/07/27 08:03:15;;;;;;;5.60;5.10;;;20.70;99.90;;;;;;5030604;28;20661;-86
2021/07/27 08:05:42;;;;;;;8.30;6.40;;;20.90;99.90;;;;;;5030987;28;21169;-85
2021/07/27 08:08:09;;;;;;;6.30;5.80;;;20.90;99.90;;;;;;5030546;28;21243;-86
2021/07/27 08:10:38;;;;;;;5.83;5.23;;;21.00;99.90;;;;;;5030845;28;20612;-85
2021/07/27 08:13:05;;;;;;;6.93;6.33;;;21.10;99.90;;;;;;5030161;28;20618;-86
2021/07/27 08:15:32;;;;;;;6.53;5.83;;;21.20;99.90;;;;;;5029775;28;20607;-87
2021/07/27 08:17:59;;;;;;;5.87;5.37;;;21.30;99.90;;;;;;5031003;28;21155;-86
2021/07/27 08:20:29;;;;;;;6.93;6.23;;;21.20;99.90;;;;;;5029355;28;21249;-86
2021/07/27 08:22:58;;;;;;;6.90;6.20;;;21.00;99.90;;;;;;5030189;28;20650;-86
2021/07/27 08:25:25;;;;;;;9.43;6.20;;;20.80;99.90;;;;;;5032727;28;20634;-86
2021/07/27 08:27:53;;;;;;;6.30;5.80;;;20.60;99.90;;;;;;5032361;28;20627;-86
2021/07/27 08:30:21;;;;;;;6.60;5.63;;;20.70;99.90;;;;;;5030148;28;20617;-86
2021/07/27 08:32:48;;;;;;;6.57;5.97;;;20.70;99.90;;;;;;5029891;28;21166;-86
2021/07/27 08:35:17;;;;;;;7.13;6.43;;;20.80;99.90;;;;;;5030857;28;20610;-85
2021/07/27 08:37:47;;;;;;;6.47;5.97;;;20.90;99.90;;;;;;5030405;28;21158;-85
2021/07/27 08:40:17;;;;;;;7.00;6.40;;;21.00;99.90;;;;;;5030869;28;21056;-84
2021/07/27 08:42:44;;;;;;;5.70;5.20;;;20.90;99.90;;;;;;5029794;28;20658;-85
2021/07/27 08:45:13;;;;;;;7.57;6.87;;;20.90;99.90;;;;;;5045637;28;20620;-86
2021/07/27 08:47:42;;;;;;;6.73;6.20;;;20.70;99.90;;;;;;5031019;28;20663;-85
2021/07/27 08:50:10;;;;;;;6.90;5.77;;;20.60;99.90;;;;;;5045227;28;20668;-85
2021/07/27 08:52:37;;;;;;;6.90;6.30;;;20.60;99.90;;;;;;5033156;28;20630;-86
2021/07/27 08:55:08;;;;;;;7.23;5.63;;;20.70;99.90;;;;;;5029289;28;20654;-84
2021/07/27 08:57:35;;;;;;;7.93;7.20;;;20.90;99.90;;;;;;5029064;28;20627;-85
2021/07/27 09:00:03;;;;;;;6.53;6.00;;;21.00;99.90;;;;;;5028431;28;20623;-86
2021/07/27 09:02:32;;;;;;;7.30;6.70;;;21.10;98.30;;;;;;5029233;28;21213;-86
2021/07/27 09:05:11;;;;;;;8.20;6.50;;;21.20;99.90;;;;;;5030056;28;21513;-85
2021/07/27 09:07:38;;;;;;;6.37;5.87;;;21.20;99.90;;;;;;5030379;28;20659;-85
2021/07/27 09:10:16;;;;;;;7.63;6.90;;;21.10;98.50;;;;;;5030351;28;20624;-86
2021/07/27 09:12:56;;;;;;;6.77;6.07;;;21.10;98.80;;;;;;5029675;28;20730;-84
2021/07/27 09:15:24;;;;;;;7.00;6.30;;;21.20;98.20;;;;;;5029557;28;20613;-85
2021/07/27 09:17:58;;;;;;;6.70;6.10;;;21.40;98.10;;;;;;5029833;28;20630;-86
2021/07/27 09:20:29;;;;;;;8.17;6.30;;;21.70;98.10;;;;;;5029128;28;20691;-85
2021/07/27 09:22:56;;;;;;;6.17;5.67;;;22.00;98.40;;;;;;5028997;28;20658;-85
2021/07/27 09:25:26;;;;;;;8.03;7.23;;;22.10;98.20;;;;;;5032190;28;20599;-84
2021/07/27 09:28:04;;;;;;;6.93;6.43;;;22.30;98.60;;;;;;5049762;28;20732;-84
2021/07/27 09:30:31;;;;;;;6.50;5.67;;;22.10;97.70;;;;;;5034524;28;20980;-84
2021/07/27 09:33:00;;;;;;;7.30;6.60;;;21.80;97.60;;;;;;5029626;28;21022;-85
2021/07/27 09:35:28;;;;;;;7.60;6.80;;;21.90;96.80;;;;;;5030049;28;20706;-85
2021/07/27 09:38:03;;;;;;;6.20;5.60;;;22.10;97.30;;;;;;5030326;28;20616;-85
2021/07/27 09:40:30;;;;;;;5.83;5.23;;;22.30;97.10;;;;;;5030380;28;20710;-86
2021/07/27 09:43:00;;;;;;;6.20;5.60;;;22.50;96.00;;;;;;5028967;28;20665;-86
2021/07/27 09:45:27;;;;;;;5.80;4.83;;;22.80;94.20;;;;;;5010375;28;20611;-85
2021/07/27 09:47:55;;;;;;;5.90;5.40;;;22.90;96.20;;;;;;5044732;28;20686;-84
2021/07/27 09:50:25;;;;;;;7.20;6.50;;;23.00;95.40;;;;;;5051009;28;20618;-85
2021/07/27 09:52:52;;;;;;;5.73;5.23;;;23.00;95.70;;;;;;5052525;28;20615;-85
2021/07/27 09:55:22;;;;;;;7.30;6.53;;;22.80;93.20;;;;;;5053295;28;20679;-84
2021/07/27 09:57:49;;;;;;;5.40;4.90;;;22.80;95.20;;;;;;5052156;28;20639;-84
2021/07/27 10:00:17;;;;;;;6.07;5.47;;;22.80;94.00;;;;;;5037739;28;20701;-84
2021/07/27 10:02:47;;;;;;;5.33;4.83;;;22.90;93.20;;;;;;5032748;28;20745;-86
2021/07/27 10:05:21;;;;;;;5.90;5.40;;;23.40;93.90;;;;;;5036219;28;20708;-84
2021/07/27 10:07:55;;;;;;;5.43;4.93;;;23.50;93.90;;;;;;5034044;28;20693;-85
2021/07/27 10:10:36;;;;;;;6.10;5.60;;;23.50;91.80;;;;;;5033350;28;20623;-83
2021/07/27 10:13:09;;;;;;;6.03;5.43;;;23.80;94.40;;;;;;5032770;28;20629;-85
2021/07/27 10:15:44;;;;;;;6.40;5.80;;;23.70;92.20;;;;;;5033461;28;20603;-85
2021/07/27 10:18:12;;;;;;;5.83;5.33;;;23.70;92.70;;;;;;5032596;28;20626;-84
2021/07/27 10:20:42;;;;;;;6.30;5.80;;;23.50;91.90;;;;;;5032305;28;20595;-86
2021/07/27 10:23:22;;;;;;;7.23;6.50;;;23.50;92.50;;;;;;5030814;28;20650;-85
2021/07/27 10:25:58;;;;;;;7.00;6.17;;;23.80;92.90;;;;;;5038037;28;20728;-85
2021/07/27 10:28:26;;;;;;;5.23;4.87;;;24.20;92.60;;;;;;5050533;28;21032;-84
2021/07/27 10:31:07;;;;;;;7.40;6.63;;;24.50;92.10;;;;;;5051730;28;20602;-85
2021/07/27 10:33:36;;;;;;;5.97;5.47;;;24.10;91.80;;;;;;5036046;28;20998;-84
2021/07/27 10:36:04;;;;;;;6.47;5.87;;;24.20;91.80;;;;;;5032759;28;21030;-84
2021/07/27 10:38:41;;;;;;;6.53;5.90;;;23.90;91.50;;;;;;5031660;28;20618;-83
2021/07/27 10:41:20;;;;;;;7.30;5.00;;;23.60;91.90;;;;;;5031864;28;20695;-85
2021/07/27 10:43:47;;;;;;;5.50;5.00;;;23.70;91.40;;;;;;5037849;28;21255;-83
2021/07/27 10:46:14;;;;;;;6.03;5.50;;;24.10;90.50;;;;;;5050708;28;20965;-85
2021/07/27 10:48:41;;;;;;;6.83;5.70;;;24.40;88.60;;;;;;5051984;28;21107;-84
2021/07/27 10:51:09;;;;;;;6.10;5.60;;;24.80;92.30;;;;;;5010346;28;20693;-84
2021/07/27 10:53:37;;;;;;;7.63;5.27;;;24.80;90.10;;;;;;5012658;28;20611;-84
2021/07/27 10:56:08;;;;;;;5.97;5.37;;;25.10;90.40;;;;;;5012642;28;20619;-84
2021/07/27 10:58:36;;;;;;;5.47;5.07;;;25.50;90.30;;;;;;5012991;28;20952;-84
2021/07/27 11:01:10;;;;;;;5.83;5.37;;;25.60;91.00;;;;;;5011947;28;21306;-84
2021/07/27 11:03:37;;;;;;;5.60;5.10;;;25.80;82.90;;;;;;5031004;28;20637;-84
2021/07/27 11:06:05;;;;;;;5.60;5.07;;;25.90;87.50;;;;;;5031817;28;20619;-85
2021/07/27 11:08:32;;;;;;;5.53;5.13;;;26.10;87.50;;;;;;5032454;28;20681;-83
2021/07/27 11:11:08;;;;;;;5.20;4.70;;;26.30;83.70;;;;;;5032505;28;20646;-84
2021/07/27 11:13:36;;;;;;;5.60;5.10;;;26.60;84.20;;;;;;5027649;28;20679;-84
2021/07/27 11:16:04;;;;;;;6.23;4.83;;;26.80;80.00;;;;;;5041943;28;20609;-84
2021/07/27 11:18:32;;;;;;;4.83;4.50;;;26.90;77.60;;;;;;5038728;28;21264;-84
2021/07/27 11:21:00;;;;;;;5.13;4.83;;;26.90;74.80;;;;;;5049281;28;20641;-84
2021/07/27 11:23:32;;;;;;;5.47;5.07;;;27.00;77.50;;;;;;5051597;28;20652;-85
2021/07/27 11:25:59;;;;;;;5.23;4.83;;;27.10;79.30;;;;;;5051560;28;21014;-85
2021/07/27 11:28:36;;;;;;;5.03;4.70;;;27.10;75.90;;;;;;5032140;28;20615;-83
2021/07/27 11:31:05;;;;;;;5.37;4.93;;;27.00;77.10;;;;;;5031810;28;20708;-83
2021/07/27 11:33:31;;;;;;;5.43;4.93;;;27.00;80.70;;;;;;5048388;28;20616;-84
2021/07/27 11:36:00;;;;;;;4.90;4.50;;;26.90;80.60;;;;;;5031504;28;20615;-84
2021/07/27 11:38:30;;;;;;;5.03;4.63;;;27.00;79.20;;;;;;5031421;28;20982;-83
2021/07/27 11:41:05;;;;;;;5.27;4.87;;;26.50;79.80;;;;;;5030471;28;20737;-84
2021/07/27 11:43:35;;;;;;;4.90;4.50;;;26.30;82.40;;;;;;5035246;28;21015;-84
2021/07/27 11:46:08;;;;;;;6.10;4.80;;;26.30;83.70;;;;;;5050508;28;20610;-84
2021/07/27 11:48:35;;;;;;;5.53;4.93;;;26.30;79.00;;;;;;5051184;28;20614;-84
2021/07/27 11:51:03;;;;;;;5.77;5.30;;;26.30;81.60;;;;;;5048383;28;20684;-83
2021/07/27 11:53:32;;;;;;;5.50;5.10;;;26.20;79.20;;;;;;5030789;28;20618;-83
2021/07/27 11:56:10;;;;;;;6.57;6.07;;;26.10;79.10;;;;;;5030771;28;20746;-84
2021/07/27 11:58:38;;;;;;;4.83;4.43;;;26.00;84.60;;;;;;5031507;28;20709;-84
2021/07/27 12:01:05;;;;;;;7.90;4.60;;;25.70;83.60;;;;;;5030992;28;20623;-84
2021/07/27 12:03:32;;;;;;;4.70;4.33;;;25.40;85.20;;;;;;5031002;28;21054;-83
2021/07/27 12:06:10;;;;;;;7.43;4.30;;;25.40;87.80;;;;;;5030654;28;21207;-84
2021/07/27 12:08:37;;;;;;;4.30;3.90;;;25.40;85.90;;;;;;5039658;28;20653;-81
2021/07/27 12:11:04;;;;;;;5.13;4.30;;;25.60;78.50;;;;;;5035855;28;20634;-82
2021/07/27 12:13:31;;;;;;;3.97;3.70;;;25.50;86.00;;;;;;5030488;28;21160;-82
2021/07/27 12:16:00;;;;;;;6.50;4.20;;;25.30;83.70;;;;;;5030979;28;20610;-82
2021/07/27 12:18:27;;;;;;;4.57;4.17;;;25.50;85.20;;;;;;5023436;28;20758;-82
2021/07/27 12:20:54;;;;;;;4.10;3.70;;;25.50;84.50;;;;;;5030078;28;20610;-84
2021/07/27 12:23:21;;;;;;;4.60;4.13;;;25.50;83.20;;;;;;5030411;28;20651;-84
2021/07/27 12:25:48;;;;;;;5.20;4.70;;;25.70;76.30;;;;;;5030451;28;20638;-84
2021/07/27 12:28:15;;;;;;;8.00;4.23;;;25.80;79.30;;;;;;5030547;28;20619;-83
2021/07/27 12:30:42;;;;;;;4.30;4.00;;;25.70;81.30;;;;;;5030703;28;20618;-82
2021/07/27 12:33:12;;;;;;;4.20;3.90;;;26.00;80.60;;;;;;5026158;28;21250;-83
2021/07/27 12:35:39;;;;;;;4.33;3.43;;;26.70;79.10;;;;;;5028525;28;20630;-84
2021/07/27 12:38:07;;;;;;;4.30;4.00;;;27.30;70.70;;;;;;5030291;28;20607;-83
2021/07/27 12:40:36;;;;;;;4.60;4.30;;;27.50;76.60;;;;;;5030334;28;20623;-82
2021/07/27 12:43:05;;;;;;;4.23;3.83;;;27.80;73.00;;;;;;5034294;28;20655;-85
2021/07/27 12:45:33;;;;;;;4.40;3.67;;;28.20;68.20;;;;;;5050752;28;20668;-83
2021/07/27 12:48:00;;;;;;;4.50;4.10;;;28.80;66.90;;;;;;5046065;28;20638;-83
2021/07/27 12:50:29;;;;;;;3.57;3.37;;;29.70;63.20;;;;;;5030961;28;20758;-83
2021/07/27 12:52:56;;;;;;;3.77;3.50;;;29.30;69.10;;;;;;5027777;28;20627;-85
2021/07/27 12:55:23;;;;;;;3.83;3.63;;;29.50;61.60;;;;;;5030293;28;20673;-84
2021/07/27 12:57:50;;;;;;;4.03;3.73;;;30.10;62.70;;;;;;5030815;28;20606;-84
2021/07/27 13:00:18;;;;;;;4.67;3.90;;;30.00;65.20;;;;;;5030542;28;21311;-85
2021/07/27 13:02:45;;;;;;;4.20;4.00;;;30.60;62.40;;;;;;5029768;28;21167;-84
2021/07/27 13:05:13;;;;;;;3.33;3.13;;;31.10;60.10;;;;;;5030838;28;21233;-85
2021/07/27 13:07:41;;;;;;;4.60;4.20;;;31.30;61.60;;;;;;5030343;28;20685;-84
2021/07/27 13:10:09;;;;;;;5.17;4.10;;;31.60;58.40;;;;;;5049908;28;20618;-85
2021/07/27 13:12:36;;;;;;;3.97;3.77;;;31.30;57.60;;;;;;5049455;28;20610;-85
2021/07/27 13:15:04;;;;;;;4.17;3.87;;;30.60;57.70;;;;;;5049051;28;20622;-85
2021/07/27 13:17:30;;;;;;;4.93;4.53;;;30.20;57.80;;;;;;5045949;28;20619;-85